Time;durP1;ratioP1;P1;durP2;ratioP2;P2;SDS_P1;SDS_P2;PMS_P1;PMS_P2;Temp;Humidity;BMP_temperature;BMP_pressure;BME280_temperature;BME280_humidity;BME280_pressure;Samples;Min_cycle;Max_cycle;Signal;HPM_P1;HPM_P2
2023/07/31 00:00:34;;;;;;;1.17;0.30;;;;;;;17.90;94.03;100135.72;4946408;29;20107;-66
2023/07/31 00:03:00;;;;;;;0.30;0.20;;;;;;;17.88;94.79;100140.84;4945925;29;20061;-66
2023/07/31 00:05:25;;;;;;;0.47;0.40;;;;;;;18.02;93.54;100135.13;4945469;29;20743;-66
2023/07/31 00:07:51;;;;;;;0.45;0.45;;;;;;;18.02;93.48;100129.66;4934909;29;20118;-65
2023/07/31 00:10:17;;;;;;;0.40;0.40;;;;;;;18.20;92.65;100131.28;4955475;28;20046;-65
2023/07/31 00:12:45;;;;;;;0.30;0.30;;;;;;;18.04;92.83;100123.78;4942613;28;20526;-65
2023/07/31 00:15:13;;;;;;;0.40;0.30;;;;;;;18.05;93.64;100122.63;4945841;28;20046;-66
2023/07/31 00:17:38;;;;;;;0.30;0.20;;;;;;;18.01;94.07;100127.38;4950485;29;20039;-66
2023/07/31 00:20:04;;;;;;;0.63;0.50;;;;;;;18.04;94.08;100127.31;4948635;28;20534;-65
2023/07/31 00:22:29;;;;;;;0.52;0.40;;;;;;;18.10;93.69;100124.84;5031208;28;20041;-65
2023/07/31 00:24:56;;;;;;;0.40;0.40;;;;;;;18.24;92.05;100127.31;5036442;28;20038;-64
2023/07/31 00:27:21;;;;;;;0.85;0.85;;;;;;;18.19;92.43;100127.03;4977346;28;20403;-66
2023/07/31 00:29:47;;;;;;;2.03;0.40;;;;;;;18.17;92.59;100134.88;4964159;28;20039;-66
2023/07/31 00:32:12;;;;;;;1.27;0.45;;;;;;;18.10;93.42;100121.38;4964986;28;20034;-66
2023/07/31 00:34:38;;;;;;;0.88;0.65;;;;;;;18.04;94.02;100121.84;5037266;28;20019;-65
2023/07/31 00:37:06;;;;;;;2.45;1.10;;;;;;;18.22;92.83;100116.06;4973369;28;20449;-65
2023/07/31 00:39:34;;;;;;;0.70;0.50;;;;;;;18.04;92.79;100104.72;4971131;28;20034;-66
2023/07/31 00:41:59;;;;;;;1.63;0.68;;;;;;;18.05;92.78;100111.72;5005201;28;20063;-64
2023/07/31 00:44:24;;;;;;;0.90;0.38;;;;;;;17.94;93.91;100111.91;5006681;28;20030;-66
2023/07/31 00:46:51;;;;;;;0.35;0.32;;;;;;;18.08;93.57;100108.16;5030476;28;20043;-66
2023/07/31 00:49:16;;;;;;;0.60;0.35;;;;;;;18.07;93.62;100112.06;5036438;28;20141;-65
2023/07/31 00:51:42;;;;;;;0.60;0.50;;;;;;;18.07;93.13;100111.28;4984857;28;20110;-66
2023/07/31 00:54:07;;;;;;;1.27;0.77;;;;;;;18.10;93.78;100113.22;4979411;28;20023;-66
2023/07/31 00:56:33;;;;;;;0.40;0.40;;;;;;;18.10;92.94;100105.03;5041210;28;20430;-67
2023/07/31 00:59:00;;;;;;;0.50;0.50;;;;;;;18.07;93.26;100097.66;5034442;28;20070;-67
2023/07/31 01:01:25;;;;;;;2.72;0.40;;;;;;;18.06;93.61;100101.59;4964712;28;20116;-67
2023/07/31 01:03:53;;;;;;;0.43;0.30;;;;;;;18.07;93.22;100100.41;5041038;28;20020;-66
2023/07/31 01:06:36;;;;;;;0.30;0.30;;;;;;;18.04;94.16;100102.00;5026062;28;20045;-66
2023/07/31 01:09:06;;;;;;;0.30;0.30;;;;;;;18.00;94.22;100088.44;5050572;28;20670;-67
2023/07/31 01:11:38;;;;;;;0.32;0.30;;;;;;;17.97;94.69;100083.06;5024660;28;20031;-67
2023/07/31 01:14:04;;;;;;;1.13;0.50;;;;;;;17.97;93.67;100078.38;5034170;28;20037;-67
2023/07/31 01:16:30;;;;;;;0.55;0.40;;;;;;;17.97;94.20;100074.88;4966501;28;20398;-66
2023/07/31 01:18:55;;;;;;;1.42;0.50;;;;;;;18.03;92.99;100068.53;5031821;28;20034;-66
2023/07/31 01:21:36;;;;;;;0.82;0.60;;;;;;;17.97;92.89;100078.38;4964636;28;20027;-65
2023/07/31 01:24:23;;;;;;;0.70;0.50;;;;;;;17.93;93.85;100074.97;4982107;28;20038;-67
2023/07/31 01:27:15;;;;;;;0.95;0.57;;;;;;;17.84;93.95;100074.75;5030394;28;20059;-66
2023/07/31 01:29:55;;;;;;;0.82;0.55;;;;;;;17.85;94.29;100080.94;5046185;28;20110;-64
2023/07/31 01:32:22;;;;;;;0.80;0.68;;;;;;;17.87;93.96;100068.47;5029755;28;20035;-67
2023/07/31 01:34:52;;;;;;;0.57;0.40;;;;;;;17.85;94.41;100072.78;5035701;28;20031;-67
2023/07/31 01:37:18;;;;;;;0.63;0.50;;;;;;;17.88;94.27;100071.97;5042423;28;20027;-66
2023/07/31 01:39:43;;;;;;;0.50;0.50;;;;;;;17.86;94.34;100058.75;4990033;28;20094;-65
2023/07/31 01:42:08;;;;;;;4.05;0.60;;;;;;;17.89;94.42;100068.03;4982089;28;20746;-67
2023/07/31 01:44:34;;;;;;;1.20;0.47;;;;;;;17.86;94.56;100066.16;4963154;28;20545;-67
2023/07/31 01:47:00;;;;;;;0.98;0.40;;;;;;;17.96;94.18;100065.94;5033824;28;20031;-66
2023/07/31 01:49:26;;;;;;;0.47;0.40;;;;;;;17.93;94.46;100055.88;5006476;28;20040;-65
2023/07/31 01:51:51;;;;;;;1.05;0.30;;;;;;;17.83;95.39;100050.63;5025210;28;20545;-66
2023/07/31 01:54:17;;;;;;;0.68;0.45;;;;;;;17.92;94.71;100051.63;4974934;28;20026;-67
2023/07/31 01:56:42;;;;;;;0.40;0.40;;;;;;;17.94;95.06;100048.50;5036370;28;20141;-66
2023/07/31 01:59:08;;;;;;;3.85;0.40;;;;;;;18.13;93.59;100045.00;5031818;28;20038;-66
2023/07/31 02:01:33;;;;;;;8.05;0.60;;;;;;;18.05;93.75;100046.31;5029115;28;20100;-67
2023/07/31 02:03:59;;;;;;;0.60;0.40;;;;;;;18.05;94.17;100038.13;5031321;28;20111;-66
2023/07/31 02:06:24;;;;;;;1.27;0.63;;;;;;;17.92;94.33;100043.44;5023888;28;20062;-67
2023/07/31 02:08:50;;;;;;;0.52;0.50;;;;;;;17.97;93.98;100026.63;5017443;28;20037;-67
2023/07/31 02:11:15;;;;;;;0.60;0.50;;;;;;;17.96;94.50;100024.31;5045407;28;20069;-63
2023/07/31 02:13:41;;;;;;;0.85;0.65;;;;;;;17.94;94.96;100027.44;5039802;28;20027;-64
2023/07/31 02:16:06;;;;;;;0.70;0.50;;;;;;;17.98;94.40;100024.66;4969041;28;20079;-64
2023/07/31 02:18:32;;;;;;;0.50;0.43;;;;;;;18.00;94.05;100020.31;4966524;28;20030;-62
2023/07/31 02:20:57;;;;;;;1.98;0.80;;;;;;;18.05;93.84;100029.97;4988495;28;20038;-63
2023/07/31 02:23:23;;;;;;;1.65;0.45;;;;;;;17.92;94.15;100016.19;5021009;28;20181;-64
2023/07/31 02:25:49;;;;;;;0.60;0.50;;;;;;;17.87;95.30;100015.91;5019939;28;20050;-65
2023/07/31 02:28:14;;;;;;;1.10;0.52;;;;;;;17.85;95.55;100016.34;4969205;28;20479;-63
2023/07/31 02:30:43;;;;;;;0.60;0.40;;;;;;;17.88;95.52;100010.06;4966176;28;20109;-64
2023/07/31 02:33:09;;;;;;;0.73;0.63;;;;;;;17.88;96.31;100003.84;5049622;28;20027;-63
2023/07/31 02:35:34;;;;;;;2.47;0.60;;;;;;;17.98;95.92;100014.50;4972688;28;20486;-63
2023/07/31 02:37:59;;;;;;;0.55;0.55;;;;;;;17.89;96.22;100005.38;5012688;28;20034;-63
2023/07/31 02:40:25;;;;;;;1.45;0.50;;;;;;;17.91;96.28;100011.16;4976086;28;20113;-63
2023/07/31 02:42:50;;;;;;;0.80;0.45;;;;;;;17.87;96.98;99999.56;4998648;28;20119;-64
2023/07/31 02:45:16;;;;;;;1.45;0.60;;;;;;;17.94;96.46;100007.63;4960512;28;20089;-64
2023/07/31 02:47:41;;;;;;;0.80;0.40;;;;;;;17.89;97.09;100008.88;5033862;28;20043;-63
2023/07/31 02:50:07;;;;;;;0.38;0.38;;;;;;;17.91;97.20;100009.22;5029993;28;20038;-63
2023/07/31 02:52:32;;;;;;;0.70;0.60;;;;;;;17.96;97.37;100003.25;5046493;28;20021;-63
2023/07/31 02:54:58;;;;;;;0.43;0.40;;;;;;;18.01;97.29;99994.63;5026595;28;20412;-65
2023/07/31 02:57:23;;;;;;;0.40;0.38;;;;;;;18.06;97.19;99989.84;5063466;22;20030;-65
2023/07/31 02:59:49;;;;;;;0.63;0.43;;;;;;;18.06;97.31;100004.22;5086990;28;20040;-63
2023/07/31 03:02:14;;;;;;;0.32;0.30;;;;;;;18.03;97.80;100005.88;5077339;28;20079;-63
2023/07/31 03:04:40;;;;;;;0.65;0.50;;;;;;;18.13;97.26;99998.66;5080690;28;20026;-63
2023/07/31 03:07:06;;;;;;;0.75;0.57;;;;;;;18.14;96.53;99999.44;5082895;28;20062;-63
2023/07/31 03:09:31;;;;;;;1.00;0.57;;;;;;;18.16;97.18;99997.03;5078485;28;20030;-63
2023/07/31 03:11:57;;;;;;;2.95;0.68;;;;;;;18.13;96.93;99990.47;5086391;28;20077;-63
2023/07/31 03:14:22;;;;;;;0.60;0.60;;;;;;;18.15;96.55;99992.78;5081023;28;20044;-62
2023/07/31 03:16:48;;;;;;;2.88;0.45;;;;;;;18.10;97.50;99987.81;5075359;28;20028;-62
2023/07/31 03:19:14;;;;;;;1.50;0.50;;;;;;;18.16;96.96;99986.13;5074374;28;20404;-63
2023/07/31 03:21:39;;;;;;;0.95;0.70;;;;;;;18.17;96.95;99983.00;5079853;28;20055;-63
2023/07/31 03:24:05;;;;;;;1.88;0.50;;;;;;;18.13;97.00;99978.78;5072404;28;20525;-65
2023/07/31 03:26:32;;;;;;;0.70;0.57;;;;;;;18.13;97.49;99984.25;5081665;28;20025;-62
2023/07/31 03:28:57;;;;;;;1.23;0.55;;;;;;;18.11;97.36;99968.31;5068604;28;20086;-63
2023/07/31 03:31:23;;;;;;;0.80;0.60;;;;;;;18.12;97.82;99964.41;5076744;28;20039;-65
2023/07/31 03:33:48;;;;;;;2.67;0.60;;;;;;;18.19;97.08;99968.94;5078250;28;20028;-63
2023/07/31 03:36:14;;;;;;;1.33;0.85;;;;;;;18.13;97.95;99962.44;5081129;28;20016;-63
2023/07/31 03:38:39;;;;;;;1.23;0.50;;;;;;;18.08;98.58;99954.78;5085824;28;20036;-65
2023/07/31 03:41:06;;;;;;;2.38;0.82;;;;;;;18.16;98.12;99958.84;5063011;28;20039;-64
2023/07/31 03:43:35;;;;;;;3.88;0.85;;;;;;;18.11;98.35;99960.16;5077740;28;20029;-64
2023/07/31 03:46:01;;;;;;;4.60;0.95;;;;;;;18.11;98.64;99962.09;5071928;28;20103;-62
2023/07/31 03:48:26;;;;;;;0.80;0.68;;;;;;;18.12;98.79;99969.09;5073632;28;20032;-63
2023/07/31 03:50:52;;;;;;;7.32;0.80;;;;;;;18.17;98.49;99958.47;5072080;28;20083;-64
2023/07/31 03:53:17;;;;;;;0.55;0.55;;;;;;;18.20;97.95;99965.00;5079171;28;20020;-64
2023/07/31 03:55:42;;;;;;;1.00;0.65;;;;;;;18.20;98.51;99967.72;5082529;28;20480;-64
2023/07/31 03:58:08;;;;;;;1.00;0.65;;;;;;;18.27;98.42;99964.88;5041754;28;20038;-63
2023/07/31 04:00:34;;;;;;;0.98;0.70;;;;;;;18.19;98.80;99966.97;4997625;28;20126;-64
2023/07/31 04:02:59;;;;;;;1.35;0.65;;;;;;;18.31;98.42;99960.84;4999758;28;20053;-63
2023/07/31 04:05:24;;;;;;;0.93;0.80;;;;;;;18.27;98.49;99962.91;4999686;28;20110;-64
2023/07/31 04:07:50;;;;;;;1.40;1.10;;;;;;;18.31;97.72;99960.09;5008888;28;20097;-64
2023/07/31 04:10:15;;;;;;;1.10;0.85;;;;;;;18.35;98.11;99968.97;4991376;28;20482;-64
2023/07/31 04:12:41;;;;;;;0.70;0.57;;;;;;;18.29;99.13;99967.94;4993673;28;20050;-62
2023/07/31 04:15:07;;;;;;;1.48;0.75;;;;;;;18.34;98.49;99970.94;4991220;28;20026;-64
2023/07/31 04:17:32;;;;;;;1.30;0.90;;;;;;;18.28;99.31;99963.66;4990017;28;20509;-66
2023/07/31 04:19:58;;;;;;;1.17;0.80;;;;;;;18.33;99.53;99963.19;5086861;28;20061;-63
2023/07/31 04:22:23;;;;;;;1.38;0.90;;;;;;;18.46;98.49;99967.56;4992293;28;20038;-64
2023/07/31 04:24:48;;;;;;;1.38;0.90;;;;;;;18.45;97.74;99970.69;4991051;28;20386;-64
2023/07/31 04:27:14;;;;;;;1.45;1.00;;;;;;;18.37;98.55;99970.06;4990777;28;20044;-62
2023/07/31 04:29:42;;;;;;;1.45;1.00;;;;;;;18.34;99.04;99959.25;5061477;28;20038;-65
2023/07/31 04:32:08;;;;;;;1.38;1.05;;;;;;;18.32;99.43;99956.94;4993679;28;20045;-63
2023/07/31 04:34:33;;;;;;;1.70;0.95;;;;;;;18.47;98.21;99951.94;4995000;28;20080;-64
2023/07/31 04:37:02;;;;;;;4.78;1.10;;;;;;;18.43;98.62;99946.59;5057773;28;20042;-64
2023/07/31 04:39:27;;;;;;;2.95;0.93;;;;;;;18.47;98.43;99938.31;5057852;28;20038;-64
2023/07/31 04:41:53;;;;;;;1.55;0.95;;;;;;;18.53;97.78;99934.66;4995929;28;20030;-64
2023/07/31 04:44:18;;;;;;;2.58;1.17;;;;;;;18.44;98.64;99936.44;5002557;28;20122;-64
2023/07/31 04:46:43;;;;;;;2.15;0.95;;;;;;;18.45;98.32;99937.97;5057762;28;20035;-64
2023/07/31 04:49:09;;;;;;;0.93;0.77;;;;;;;18.39;98.95;99940.41;4990421;28;20062;-64
2023/07/31 04:51:34;;;;;;;1.40;0.73;;;;;;;18.42;99.60;99941.53;4998310;28;20480;-65
2023/07/31 04:54:00;;;;;;;2.42;1.10;;;;;;;18.29;99.10;99940.66;4996511;28;20031;-63
2023/07/31 04:56:25;;;;;;;1.15;1.05;;;;;;;18.23;99.99;99923.28;4988679;28;20041;-65
2023/07/31 04:58:51;;;;;;;2.25;1.00;;;;;;;18.41;99.54;99929.84;4988105;28;20040;-64
2023/07/31 05:01:16;;;;;;;1.92;1.10;;;;;;;18.42;99.43;99934.16;4997087;28;20042;-64
2023/07/31 05:03:41;;;;;;;1.13;0.90;;;;;;;18.17;100.00;99923.03;4989123;28;20570;-64
2023/07/31 05:06:07;;;;;;;1.88;1.08;;;;;;;18.28;100.00;99926.25;4983694;28;20064;-65
2023/07/31 05:08:33;;;;;;;2.75;1.13;;;;;;;18.35;100.00;99917.16;4996757;28;20038;-65
2023/07/31 05:10:58;;;;;;;1.50;0.98;;;;;;;18.28;100.00;99922.75;5008485;28;20373;-64
2023/07/31 05:13:24;;;;;;;2.80;1.30;;;;;;;18.29;100.00;99927.78;5008952;28;20038;-65
2023/07/31 05:15:49;;;;;;;1.80;0.90;;;;;;;18.30;100.00;99923.88;5062291;28;20027;-64
2023/07/31 05:18:15;;;;;;;2.42;1.40;;;;;;;18.34;100.00;99924.56;4997380;28;20038;-64
2023/07/31 05:20:40;;;;;;;1.30;0.85;;;;;;;18.16;100.00;99921.47;4989475;28;20034;-64
2023/07/31 05:23:06;;;;;;;1.63;1.10;;;;;;;18.25;100.00;99923.63;4987713;28;20042;-65
2023/07/31 05:25:32;;;;;;;2.67;1.02;;;;;;;18.27;100.00;99930.19;5004743;28;20033;-64
2023/07/31 05:27:57;;;;;;;1.50;1.08;;;;;;;18.36;100.00;99926.88;4990950;28;20467;-64
2023/07/31 05:30:22;;;;;;;0.77;0.77;;;;;;;18.34;100.00;99940.16;4995054;28;20026;-64
2023/07/31 05:32:48;;;;;;;1.35;0.93;;;;;;;18.32;100.00;99926.19;4994154;28;20031;-65
2023/07/31 05:35:13;;;;;;;1.95;1.02;;;;;;;18.38;100.00;99933.44;4989792;28;20046;-64
2023/07/31 05:37:39;;;;;;;1.33;0.90;;;;;;;18.44;100.00;99931.78;5006876;28;20039;-65
2023/07/31 05:40:05;;;;;;;1.55;0.82;;;;;;;18.47;100.00;99919.22;5019162;28;20085;-65
2023/07/31 05:42:30;;;;;;;1.08;0.88;;;;;;;18.43;100.00;99921.25;4990735;28;20529;-64
2023/07/31 05:44:56;;;;;;;0.80;0.68;;;;;;;18.40;100.00;99916.66;5015056;28;20138;-64
2023/07/31 05:47:21;;;;;;;1.48;1.08;;;;;;;18.49;100.00;99925.03;4992661;28;20040;-64
2023/07/31 05:49:46;;;;;;;1.83;0.95;;;;;;;18.43;100.00;99924.00;4998464;28;20479;-65
2023/07/31 05:52:12;;;;;;;2.50;0.90;;;;;;;18.40;100.00;99930.28;5021882;28;20034;-64
2023/07/31 05:54:37;;;;;;;1.50;1.05;;;;;;;18.43;100.00;99924.78;5004187;28;20443;-64
2023/07/31 05:57:03;;;;;;;2.75;1.38;;;;;;;18.50;100.00;99921.13;4990747;28;20041;-63
2023/07/31 05:59:30;;;;;;;1.98;1.02;;;;;;;18.44;100.00;99917.38;4995949;28;20133;-64
2023/07/31 06:01:56;;;;;;;1.00;0.90;;;;;;;18.38;100.00;99914.34;5016299;28;20030;-64
2023/07/31 06:04:21;;;;;;;1.15;1.05;;;;;;;18.36;100.00;99916.72;4995591;28;20035;-64
2023/07/31 06:06:47;;;;;;;1.88;1.08;;;;;;;18.36;100.00;99902.31;5060378;28;20033;-64
2023/07/31 06:09:12;;;;;;;2.05;1.00;;;;;;;18.34;100.00;99902.75;4988439;28;20045;-64
2023/07/31 06:11:38;;;;;;;1.23;0.98;;;;;;;18.33;100.00;99895.00;4995965;28;20531;-65
2023/07/31 06:14:03;;;;;;;1.13;0.80;;;;;;;18.42;100.00;99898.72;5024811;28;20069;-64
2023/07/31 06:16:28;;;;;;;1.77;0.82;;;;;;;18.40;100.00;99890.16;5058220;28;20034;-64
2023/07/31 06:18:54;;;;;;;1.40;0.90;;;;;;;18.54;100.00;99886.34;4993396;28;20046;-63
2023/07/31 06:21:19;;;;;;;1.67;1.10;;;;;;;18.43;100.00;99885.81;5007545;28;20083;-64
2023/07/31 06:23:45;;;;;;;1.23;0.77;;;;;;;18.42;100.00;99878.81;5003675;28;20025;-64
2023/07/31 06:26:10;;;;;;;0.80;0.80;;;;;;;18.50;100.00;99875.53;4996709;28;20046;-64
2023/07/31 06:28:36;;;;;;;1.25;0.90;;;;;;;18.62;100.00;99884.97;4995650;28;20121;-63
2023/07/31 06:31:01;;;;;;;1.92;1.05;;;;;;;18.71;100.00;99890.59;4992388;28;20328;-64
2023/07/31 06:33:27;;;;;;;1.05;0.73;;;;;;;18.78;100.00;99884.94;4998662;28;20467;-65
2023/07/31 06:35:53;;;;;;;2.00;1.00;;;;;;;18.85;100.00;99888.25;4999492;28;20111;-63
2023/07/31 06:38:24;;;;;;;1.65;0.85;;;;;;;18.76;100.00;99892.78;5019187;28;20398;-64
2023/07/31 06:40:49;;;;;;;1.55;0.95;;;;;;;18.77;100.00;99891.59;4992228;28;20041;-64
2023/07/31 06:43:15;;;;;;;1.27;0.65;;;;;;;18.83;100.00;99887.16;4987739;28;20026;-63
2023/07/31 06:45:40;;;;;;;1.02;0.82;;;;;;;18.81;100.00;99892.28;4988789;28;20070;-64
2023/07/31 06:48:06;;;;;;;1.27;1.00;;;;;;;18.77;100.00;99894.34;4994265;28;20128;-64
2023/07/31 06:50:31;;;;;;;0.88;0.65;;;;;;;18.74;100.00;99890.50;4993103;28;20034;-63
2023/07/31 06:52:58;;;;;;;0.98;0.73;;;;;;;18.82;100.00;99889.13;4987268;28;20038;-64
2023/07/31 06:55:24;;;;;;;2.90;0.73;;;;;;;18.85;100.00;99884.78;4988581;28;20069;-65
2023/07/31 06:57:51;;;;;;;0.65;0.63;;;;;;;18.92;100.00;99888.09;4990304;28;20038;-64
2023/07/31 07:00:18;;;;;;;1.13;0.70;;;;;;;18.77;100.00;99888.88;5001032;28;20034;-65
2023/07/31 07:02:44;;;;;;;4.25;0.77;;;;;;;18.78;100.00;99882.22;4994080;28;20029;-63
2023/07/31 07:05:09;;;;;;;3.50;0.68;;;;;;;18.77;100.00;99888.88;4987996;28;20038;-63
2023/07/31 07:07:35;;;;;;;1.13;0.70;;;;;;;18.86;100.00;99889.03;4998976;28;20038;-64
2023/07/31 07:10:01;;;;;;;1.45;0.70;;;;;;;18.96;100.00;99884.47;4987395;28;20062;-65
2023/07/31 07:12:30;;;;;;;1.02;0.70;;;;;;;19.04;100.00;99894.78;5000343;28;20065;-64
2023/07/31 07:14:55;;;;;;;1.95;0.88;;;;;;;19.04;100.00;99892.06;5001638;28;20018;-65
2023/07/31 07:17:21;;;;;;;1.13;0.70;;;;;;;19.02;100.00;99893.69;5000991;28;20030;-64
2023/07/31 07:19:50;;;;;;;0.80;0.70;;;;;;;18.95;100.00;99899.34;5000105;28;20090;-64
2023/07/31 07:22:15;;;;;;;0.73;0.50;;;;;;;19.02;100.00;99899.91;4996572;28;20038;-63
2023/07/31 07:24:43;;;;;;;0.73;0.52;;;;;;;19.00;100.00;99905.03;4995894;28;20070;-64
2023/07/31 07:27:08;;;;;;;1.00;0.90;;;;;;;18.94;100.00;99901.28;4990026;28;20054;-64
2023/07/31 07:29:34;;;;;;;0.40;0.32;;;;;;;18.98;100.00;99899.25;4988903;28;20046;-64
2023/07/31 07:32:00;;;;;;;0.90;0.57;;;;;;;19.00;100.00;99893.34;4996765;28;20035;-65
2023/07/31 07:34:27;;;;;;;0.68;0.60;;;;;;;19.03;100.00;99887.78;4994750;28;20402;-64
2023/07/31 07:36:52;;;;;;;0.70;0.52;;;;;;;19.01;100.00;99889.44;4994214;28;20038;-63
2023/07/31 07:39:18;;;;;;;0.57;0.47;;;;;;;19.16;100.00;99888.63;4997951;28;20018;-63
2023/07/31 07:41:43;;;;;;;1.15;0.82;;;;;;;19.06;100.00;99894.34;4993084;28;20117;-65
2023/07/31 07:44:09;;;;;;;0.80;0.47;;;;;;;19.11;100.00;99889.13;4996748;28;20493;-64
2023/07/31 07:46:34;;;;;;;1.17;0.75;;;;;;;19.26;100.00;99884.06;4996782;28;20508;-63
2023/07/31 07:49:00;;;;;;;1.02;0.57;;;;;;;19.23;100.00;99880.22;4996891;28;20040;-64
2023/07/31 07:51:25;;;;;;;3.58;1.45;;;;;;;19.21;100.00;99877.16;5014242;28;20030;-63
2023/07/31 07:53:50;;;;;;;0.95;0.40;;;;;;;19.15;100.00;99878.13;4999572;28;20628;-63
2023/07/31 07:56:16;;;;;;;0.80;0.60;;;;;;;19.07;100.00;99883.00;4990933;28;20038;-63
2023/07/31 07:58:41;;;;;;;0.40;0.35;;;;;;;19.14;100.00;99874.63;4999549;28;20442;-65
2023/07/31 08:01:07;;;;;;;0.22;0.22;;;;;;;19.13;100.00;99883.25;4988535;28;20064;-63
2023/07/31 08:03:32;;;;;;;0.82;0.50;;;;;;;19.13;100.00;99875.81;5071376;28;20083;-64
2023/07/31 08:06:01;;;;;;;0.20;0.20;;;;;;;19.18;100.00;99878.00;4988884;28;20486;-64
2023/07/31 08:08:28;;;;;;;0.45;0.35;;;;;;;19.30;100.00;99877.28;4990989;28;20046;-64
2023/07/31 08:10:53;;;;;;;1.38;0.45;;;;;;;19.34;100.00;99867.06;5067995;28;20034;-63
2023/07/31 08:13:19;;;;;;;0.40;0.40;;;;;;;19.34;100.00;99866.28;4987887;28;20589;-64
2023/07/31 08:15:44;;;;;;;0.25;0.20;;;;;;;19.43;100.00;99859.03;4994717;28;20155;-64
2023/07/31 08:18:11;;;;;;;0.60;0.40;;;;;;;19.49;100.00;99851.81;4989027;28;20092;-64
2023/07/31 08:20:37;;;;;;;0.63;0.30;;;;;;;19.46;100.00;99847.22;4990934;28;20019;-63
2023/07/31 08:23:03;;;;;;;0.70;0.55;;;;;;;19.62;100.00;99841.69;4990792;28;20042;-64
2023/07/31 08:25:29;;;;;;;3.65;0.30;;;;;;;19.58;100.00;99849.22;4990562;28;20050;-63
2023/07/31 08:27:55;;;;;;;0.08;0.08;;;;;;;19.58;100.00;99845.72;5000798;28;20026;-63
2023/07/31 08:30:21;;;;;;;0.17;0.17;;;;;;;19.50;100.00;99842.41;4994828;28;20030;-64
2023/07/31 08:32:47;;;;;;;0.57;0.28;;;;;;;19.49;100.00;99840.13;4993552;28;20133;-64
2023/07/31 08:35:12;;;;;;;0.30;0.20;;;;;;;19.41;100.00;99838.81;5042411;28;20125;-64
2023/07/31 08:37:38;;;;;;;0.32;0.30;;;;;;;19.46;100.00;99838.25;4997433;28;20064;-64
2023/07/31 08:40:05;;;;;;;0.10;0.10;;;;;;;19.48;100.00;99833.91;4999561;28;20048;-63
2023/07/31 08:42:31;;;;;;;0.30;0.30;;;;;;;19.48;100.00;99828.44;5006060;28;20037;-63
2023/07/31 08:44:59;;;;;;;0.15;0.15;;;;;;;19.57;100.00;99836.75;5065865;28;20029;-64
2023/07/31 08:47:27;;;;;;;0.40;0.40;;;;;;;19.46;100.00;99824.59;4991402;28;20129;-63
2023/07/31 08:49:53;;;;;;;0.10;0.10;;;;;;;19.54;100.00;99823.97;5000513;28;20042;-63
2023/07/31 08:52:18;;;;;;;0.30;0.20;;;;;;;19.40;100.00;99818.13;5063828;28;20038;-64
2023/07/31 08:54:44;;;;;;;0.20;0.20;;;;;;;19.43;100.00;99823.53;5005497;28;20026;-64
2023/07/31 08:57:11;;;;;;;0.20;0.17;;;;;;;19.53;100.00;99822.41;5062738;28;20406;-65
2023/07/31 08:59:57;;;;;;;0.57;0.30;;;;;;;19.65;100.00;99824.41;5036808;22;20590;-63
2023/07/31 09:02:29;;;;;;;0.20;0.20;;;;;;;19.77;100.00;99818.19;4963795;28;20046;-63
2023/07/31 09:04:55;;;;;;;0.10;0.10;;;;;;;19.78;100.00;99818.94;4969931;28;20046;-63
2023/07/31 09:07:21;;;;;;;0.15;0.05;;;;;;;19.80;100.00;99814.56;4969661;28;20046;-67
2023/07/31 09:09:47;;;;;;;0.25;0.15;;;;;;;19.84;100.00;99811.72;4963139;28;20041;-68
2023/07/31 09:12:12;;;;;;;0.32;0.30;;;;;;;19.82;100.00;99821.56;4969865;28;20035;-65
2023/07/31 09:14:38;;;;;;;0.63;0.30;;;;;;;19.82;100.00;99819.63;4969990;28;20042;-63
2023/07/31 09:17:04;;;;;;;0.15;0.15;;;;;;;19.84;100.00;99816.44;4950314;28;20046;-63
2023/07/31 09:19:33;;;;;;;0.20;0.20;;;;;;;19.88;100.00;99815.09;4966092;28;20125;-63
2023/07/31 09:21:59;;;;;;;0.13;0.10;;;;;;;20.01;100.00;99806.91;4951101;28;20249;-63
2023/07/31 09:24:27;;;;;;;0.25;0.15;;;;;;;20.04;100.00;99797.81;4968258;28;20419;-63
2023/07/31 09:26:55;;;;;;;0.20;0.00;;;;;;;19.92;100.00;99793.88;4969834;28;20058;-62
2023/07/31 09:29:20;;;;;;;0.03;0.00;;;;;;;19.89;100.00;99802.97;4961157;28;20102;-64
2023/07/31 09:31:46;;;;;;;0.30;0.20;;;;;;;20.02;100.00;99795.53;4945083;28;20134;-63
2023/07/31 09:34:13;;;;;;;0.20;0.20;;;;;;;20.09;100.00;99795.28;4956072;28;20473;-64
2023/07/31 09:36:49;;;;;;;0.10;0.10;;;;;;;20.07;100.00;99796.94;4964924;28;20117;-64
2023/07/31 09:39:16;;;;;;;0.00;0.00;;;;;;;20.14;100.00;99791.25;5000010;28;20045;-66
2023/07/31 09:41:45;;;;;;;0.00;0.00;;;;;;;20.16;100.00;99789.59;5042261;28;20037;-64
2023/07/31 09:44:11;;;;;;;0.10;0.10;;;;;;;20.03;100.00;99788.09;5048699;28;20040;-65
2023/07/31 09:46:37;;;;;;;0.10;0.10;;;;;;;20.05;100.00;99786.47;5033613;28;20033;-64
2023/07/31 09:49:05;;;;;;;0.00;0.00;;;;;;;20.03;100.00;99775.19;5035145;28;20033;-63
2023/07/31 09:51:31;;;;;;;0.35;0.20;;;;;;;19.98;100.00;99770.28;5040624;28;20056;-63
2023/07/31 09:53:56;;;;;;;0.00;0.00;;;;;;;20.00;100.00;99772.56;5044639;28;20072;-64
2023/07/31 09:56:23;;;;;;;0.00;0.00;;;;;;;19.94;100.00;99760.69;5043235;28;20033;-65
2023/07/31 09:58:49;;;;;;;0.00;0.00;;;;;;;20.15;100.00;99760.72;5036952;28;21355;-65
2023/07/31 10:01:15;;;;;;;0.00;0.00;;;;;;;20.16;100.00;99756.03;5040307;28;20082;-65
2023/07/31 10:03:44;;;;;;;0.00;0.00;;;;;;;20.20;100.00;99762.16;5037344;28;20041;-65
2023/07/31 10:06:10;;;;;;;0.25;0.00;;;;;;;20.08;100.00;99746.53;5046697;28;20481;-66
2023/07/31 10:08:37;;;;;;;0.00;0.00;;;;;;;20.07;100.00;99753.19;5029809;28;20124;-67
2023/07/31 10:11:04;;;;;;;0.00;0.00;;;;;;;20.09;100.00;99748.06;5044842;28;20060;-66
2023/07/31 10:13:32;;;;;;;0.10;0.00;;;;;;;20.11;100.00;99751.13;5031974;28;20032;-68
2023/07/31 10:16:00;;;;;;;0.30;0.10;;;;;;;20.12;100.00;99753.41;5023687;28;20041;-64
2023/07/31 10:18:46;;;;;;;0.05;0.00;;;;;;;20.13;100.00;99745.97;5032528;28;20404;-63
2023/07/31 10:21:13;;;;;;;0.00;0.00;;;;;;;20.18;100.00;99748.94;4944535;28;20051;-63
2023/07/31 10:23:40;;;;;;;0.00;0.00;;;;;;;20.01;100.00;99739.34;4944054;29;20111;-64
2023/07/31 10:26:07;;;;;;;0.10;0.00;;;;;;;20.04;100.00;99754.06;4949413;29;20050;-63
2023/07/31 10:28:34;;;;;;;0.20;0.10;;;;;;;20.09;100.00;99740.59;4948834;28;20082;-65
2023/07/31 10:31:01;;;;;;;0.00;0.00;;;;;;;20.08;100.00;99738.31;4949824;28;20078;-64
2023/07/31 10:33:27;;;;;;;0.05;0.03;;;;;;;20.10;100.00;99744.88;4950023;29;20042;-67
2023/07/31 10:36:13;;;;;;;0.00;0.00;;;;;;;20.10;100.00;99735.91;4928322;29;20035;-64
2023/07/31 10:38:38;;;;;;;0.47;0.30;;;;;;;20.10;100.00;99738.63;4922807;28;20137;-66
2023/07/31 10:41:10;;;;;;;1.58;0.30;;;;;;;20.09;100.00;99729.66;4945778;29;20114;-63
2023/07/31 10:43:37;;;;;;;1.23;0.52;;;;;;;20.21;100.00;99737.09;4927163;29;20044;-64
2023/07/31 10:46:11;;;;;;;1.63;0.90;;;;;;;20.15;100.00;99730.63;4915306;29;20098;-64
2023/07/31 10:48:38;;;;;;;1.63;0.93;;;;;;;20.13;100.00;99733.03;4933506;29;20239;-63
2023/07/31 10:51:17;;;;;;;2.22;1.10;;;;;;;20.06;100.00;99729.78;4948547;29;20051;-66
2023/07/31 10:53:42;;;;;;;3.67;1.48;;;;;;;20.11;100.00;99721.78;4943860;28;20083;-65
2023/07/31 10:56:12;;;;;;;2.20;1.20;;;;;;;20.11;100.00;99718.31;4934894;28;20214;-65
2023/07/31 10:58:58;;;;;;;2.08;1.33;;;;;;;20.14;100.00;99720.16;5009946;28;20095;-66
2023/07/31 11:01:43;;;;;;;3.05;1.42;;;;;;;20.16;100.00;99720.47;4981578;28;20392;-64
2023/07/31 11:04:12;;;;;;;4.35;1.80;;;;;;;20.30;100.00;99717.28;4975483;28;20045;-64
2023/07/31 11:06:38;;;;;;;4.28;1.23;;;;;;;20.32;100.00;99710.19;4984106;28;20054;-66
2023/07/31 11:09:04;;;;;;;8.35;1.77;;;;;;;20.50;100.00;99715.00;4982710;28;20056;-63
2023/07/31 11:11:33;;;;;;;5.32;2.55;;;;;;;20.52;100.00;99712.59;4975163;28;20039;-65
2023/07/31 11:13:58;;;;;;;4.50;1.63;;;;;;;20.59;100.00;99715.84;4979603;28;20464;-62
2023/07/31 11:16:25;;;;;;;3.47;1.60;;;;;;;20.55;100.00;99703.50;4983264;28;20034;-62
2023/07/31 11:18:52;;;;;;;2.35;1.35;;;;;;;20.55;100.00;99711.72;4987653;28;20101;-65
2023/07/31 11:21:22;;;;;;;2.28;1.45;;;;;;;20.61;100.00;99715.41;4986576;28;20044;-64
2023/07/31 11:23:50;;;;;;;3.72;1.33;;;;;;;20.65;100.00;99710.56;4976641;28;20109;-64